sensor_id;sensor_type;location;lat;lon;timestamp;pressure;altitude;pressure_sealevel;temperature;humidity
34738;BME280;39910;47.154;27.614;2022-09-09T00:01:08;100737.19;;;16.59;100.00
34738;BME280;39910;47.154;27.614;2022-09-09T00:03:48;100739.69;;;16.54;100.00
34738;BME280;39910;47.154;27.614;2022-09-09T00:11:40;100741.34;;;16.42;100.00
34738;BME280;39910;47.154;27.614;2022-09-09T00:14:13;100738.66;;;16.42;100.00
34738;BME280;39910;47.154;27.614;2022-09-09T00:16:47;100726.94;;;16.17;100.00
34738;BME280;39910;47.154;27.614;2022-09-09T00:19:36;100727.78;;;16.17;100.00
34738;BME280;39910;47.154;27.614;2022-09-09T00:27:27;100725.09;;;16.30;100.00
34738;BME280;39910;47.154;27.614;2022-09-09T00:30:23;100726.31;;;16.35;100.00
34738;BME280;39910;47.154;27.614;2022-09-09T00:33:07;100722.19;;;16.39;100.00
34738;BME280;39910;47.154;27.614;2022-09-09T00:35:39;100726.50;;;16.40;100.00
34738;BME280;39910;47.154;27.614;2022-09-09T00:38:25;100722.41;;;16.30;100.00
34738;BME280;39910;47.154;27.614;2022-09-09T00:40:58;100718.91;;;16.23;100.00
34738;BME280;39910;47.154;27.614;2022-09-09T00:43:32;100719.75;;;16.30;100.00
34738;BME280;39910;47.154;27.614;2022-09-09T00:56:47;100707.16;;;16.31;100.00
34738;BME280;39910;47.154;27.614;2022-09-09T00:59:28;100712.69;;;16.49;100.00
34738;BME280;39910;47.154;27.614;2022-09-09T01:01:58;100712.91;;;16.48;100.00
34738;BME280;39910;47.154;27.614;2022-09-09T01:04:31;100716.19;;;16.50;100.00
34738;BME280;39910;47.154;27.614;2022-09-09T01:07:16;100718.47;;;16.53;100.00
34738;BME280;39910;47.154;27.614;2022-09-09T01:09:59;100720.72;;;16.56;100.00
34738;BME280;39910;47.154;27.614;2022-09-09T01:12:34;100716.84;;;16.45;100.00
34738;BME280;39910;47.154;27.614;2022-09-09T01:15:25;100720.94;;;16.35;100.00
34738;BME280;39910;47.154;27.614;2022-09-09T01:20:37;100715.41;;;16.03;100.00
34738;BME280;39910;47.154;27.614;2022-09-09T01:23:20;100727.13;;;16.15;100.00
34738;BME280;39910;47.154;27.614;2022-09-09T01:28:37;100728.56;;;16.38;100.00
34738;BME280;39910;47.154;27.614;2022-09-09T01:31:05;100724.88;;;16.39;100.00
34738;BME280;39910;47.154;27.614;2022-09-09T01:33:32;100722.38;;;16.50;100.00
34738;BME280;39910;47.154;27.614;2022-09-09T01:36:21;100718.69;;;16.32;100.00
34738;BME280;39910;47.154;27.614;2022-09-09T01:38:49;100724.66;;;16.07;100.00
34738;BME280;39910;47.154;27.614;2022-09-09T01:41:15;100731.06;;;16.33;100.00
34738;BME280;39910;47.154;27.614;2022-09-09T01:43:40;100729.00;;;16.01;100.00
34738;BME280;39910;47.154;27.614;2022-09-09T01:46:06;100727.97;;;15.89;100.00
34738;BME280;39910;47.154;27.614;2022-09-09T01:48:31;100721.81;;;16.02;100.00
34738;BME280;39910;47.154;27.614;2022-09-09T01:50:57;100724.66;;;16.07;100.00
34738;BME280;39910;47.154;27.614;2022-09-09T01:53:23;100718.91;;;15.90;100.00
34738;BME280;39910;47.154;27.614;2022-09-09T02:03:51;100718.91;;;16.10;100.00
34738;BME280;39910;47.154;27.614;2022-09-09T02:08:57;100705.75;;;15.89;100.00
34738;BME280;39910;47.154;27.614;2022-09-09T02:11:28;100716.03;;;16.05;100.00
34738;BME280;39910;47.154;27.614;2022-09-09T02:14:00;100717.66;;;15.93;100.00
34738;BME280;39910;47.154;27.614;2022-09-09T02:19:11;100712.94;;;15.88;100.00
34738;BME280;39910;47.154;27.614;2022-09-09T02:21:42;100712.94;;;15.88;100.00
34738;BME280;39910;47.154;27.614;2022-09-09T02:24:09;100713.34;;;16.05;100.00
34738;BME280;39910;47.154;27.614;2022-09-09T02:26:42;100711.28;;;15.87;100.00
34738;BME280;39910;47.154;27.614;2022-09-09T02:29:19;100702.63;;;15.92;100.00
34738;BME280;39910;47.154;27.614;2022-09-09T02:31:46;100695.03;;;15.89;100.00
34738;BME280;39910;47.154;27.614;2022-09-09T02:34:13;100686.59;;;15.72;100.00
34738;BME280;39910;47.154;27.614;2022-09-09T02:36:43;100678.97;;;15.89;100.00
34738;BME280;39910;47.154;27.614;2022-09-09T02:39:11;100680.63;;;15.90;100.00
34738;BME280;39910;47.154;27.614;2022-09-09T02:41:40;100683.50;;;15.82;100.00
34738;BME280;39910;47.154;27.614;2022-09-09T02:44:10;100688.25;;;15.73;100.00
34738;BME280;39910;47.154;27.614;2022-09-09T02:46:48;100689.06;;;15.87;100.00
34738;BME280;39910;47.154;27.614;2022-09-09T02:55:06;100696.06;;;15.94;100.00
34738;BME280;39910;47.154;27.614;2022-09-09T02:57:35;100700.19;;;16.17;100.00
34738;BME280;39910;47.154;27.614;2022-09-09T03:00:02;100701.63;;;16.06;100.00
34738;BME280;39910;47.154;27.614;2022-09-09T03:02:28;100695.88;;;16.09;100.00
34738;BME280;39910;47.154;27.614;2022-09-09T03:04:53;100701.41;;;16.21;100.00
34738;BME280;39910;47.154;27.614;2022-09-09T03:07:19;100694.63;;;16.12;100.00
34738;BME280;39910;47.154;27.614;2022-09-09T03:09:45;100690.69;;;16.14;100.00
34738;BME280;39910;47.154;27.614;2022-09-09T03:12:10;100691.50;;;16.15;100.00
34738;BME280;39910;47.154;27.614;2022-09-09T03:14:37;100695.88;;;16.09;100.00
34738;BME280;39910;47.154;27.614;2022-09-09T03:17:06;100710.06;;;16.16;100.00
34738;BME280;39910;47.154;27.614;2022-09-09T03:19:33;100707.56;;;16.21;100.00
34738;BME280;39910;47.154;27.614;2022-09-09T03:22:00;100711.28;;;16.14;100.00
34738;BME280;39910;47.154;27.614;2022-09-09T03:24:25;100712.75;;;16.16;100.00
34738;BME280;39910;47.154;27.614;2022-09-09T03:26:51;100700.78;;;16.32;100.00
34738;BME280;39910;47.154;27.614;2022-09-09T03:29:17;100700.56;;;16.27;100.00
34738;BME280;39910;47.154;27.614;2022-09-09T03:31:44;100707.34;;;16.29;100.00
34738;BME280;39910;47.154;27.614;2022-09-09T03:34:10;100705.94;;;16.27;100.00
34738;BME280;39910;47.154;27.614;2022-09-09T03:36:36;100706.31;;;16.37;100.00
34738;BME280;39910;47.154;27.614;2022-09-09T03:39:02;100705.72;;;16.35;100.00
34738;BME280;39910;47.154;27.614;2022-09-09T03:41:28;100702.78;;;16.56;100.00
34738;BME280;39910;47.154;27.614;2022-09-09T03:43:54;100711.44;;;16.58;100.00
34738;BME280;39910;47.154;27.614;2022-09-09T03:46:21;100696.19;;;16.52;100.00
34738;BME280;39910;47.154;27.614;2022-09-09T03:48:47;100698.69;;;16.54;100.00
34738;BME280;39910;47.154;27.614;2022-09-09T03:51:13;100697.63;;;16.62;100.00
34738;BME280;39910;47.154;27.614;2022-09-09T03:53:38;100689.81;;;16.60;100.00
34738;BME280;39910;47.154;27.614;2022-09-09T03:56:05;100691.44;;;16.68;100.00
34738;BME280;39910;47.154;27.614;2022-09-09T03:58:33;100689.50;;;16.95;100.00
34738;BME280;39910;47.154;27.614;2022-09-09T04:03:29;100680.16;;;17.10;100.00
34738;BME280;39910;47.154;27.614;2022-09-09T04:05:57;100687.00;;;17.45;100.00
34738;BME280;39910;47.154;27.614;2022-09-09T04:08:23;100677.69;;;17.47;100.00
34738;BME280;39910;47.154;27.614;2022-09-09T04:10:53;100687.69;;;17.97;100.00
34738;BME280;39910;47.154;27.614;2022-09-09T04:13:22;100682.69;;;18.25;100.00
34738;BME280;39910;47.154;27.614;2022-09-09T04:15:52;100684.50;;;18.49;100.00
34738;BME280;39910;47.154;27.614;2022-09-09T04:18:18;100685.19;;;18.20;100.00
34738;BME280;39910;47.154;27.614;2022-09-09T04:20:47;100695.84;;;19.25;100.00
34738;BME280;39910;47.154;27.614;2022-09-09T04:23:13;100694.19;;;19.54;100.00
34738;BME280;39910;47.154;27.614;2022-09-09T04:25:44;100694.00;;;20.96;100.00
34738;BME280;39910;47.154;27.614;2022-09-09T04:28:10;100696.47;;;23.16;100.00
34738;BME280;39910;47.154;27.614;2022-09-09T04:30:35;100700.78;;;21.84;100.00
34738;BME280;39910;47.154;27.614;2022-09-09T04:33:01;100707.44;;;22.10;100.00
34738;BME280;39910;47.154;27.614;2022-09-09T04:35:26;100702.97;;;20.61;100.00
34738;BME280;39910;47.154;27.614;2022-09-09T04:37:52;100704.47;;;21.21;100.00
34738;BME280;39910;47.154;27.614;2022-09-09T04:40:18;100699.97;;;20.46;100.00
34738;BME280;39910;47.154;27.614;2022-09-09T04:42:43;100697.50;;;21.08;100.00
34738;BME280;39910;47.154;27.614;2022-09-09T04:45:09;100708.16;;;20.51;100.00
34738;BME280;39910;47.154;27.614;2022-09-09T04:47:36;100708.75;;;20.53;100.00
34738;BME280;39910;47.154;27.614;2022-09-09T04:50:02;100703.72;;;20.45;100.00
34738;BME280;39910;47.154;27.614;2022-09-09T04:52:28;100705.19;;;20.76;100.00
34738;BME280;39910;47.154;27.614;2022-09-09T04:54:53;100698.19;;;20.28;100.00
34738;BME280;39910;47.154;27.614;2022-09-09T04:57:19;100700.31;;;19.61;100.00
34738;BME280;39910;47.154;27.614;2022-09-09T04:59:45;100698.13;;;19.51;100.00
34738;BME280;39910;47.154;27.614;2022-09-09T05:02:11;100693.69;;;19.87;100.00
34738;BME280;39910;47.154;27.614;2022-09-09T05:04:37;100693.81;;;19.50;100.00
34738;BME280;39910;47.154;27.614;2022-09-09T05:07:02;100696.00;;;19.72;100.00
34738;BME280;39910;47.154;27.614;2022-09-09T05:09:27;100694.31;;;21.11;100.00
34738;BME280;39910;47.154;27.614;2022-09-09T05:11:54;100709.88;;;24.56;100.00
34738;BME280;39910;47.154;27.614;2022-09-09T05:14:20;100696.44;;;26.00;100.00
34738;BME280;39910;47.154;27.614;2022-09-09T05:16:45;100699.69;;;27.52;100.00
34738;BME280;39910;47.154;27.614;2022-09-09T05:19:12;100702.81;;;28.08;98.14
34738;BME280;39910;47.154;27.614;2022-09-09T05:21:37;100707.00;;;28.78;99.05
34738;BME280;39910;47.154;27.614;2022-09-09T05:24:03;100702.13;;;27.09;100.00
34738;BME280;39910;47.154;27.614;2022-09-09T05:26:29;100705.28;;;28.63;97.36
34738;BME280;39910;47.154;27.614;2022-09-09T05:28:55;100700.09;;;27.35;100.00
34738;BME280;39910;47.154;27.614;2022-09-09T05:31:20;100704.00;;;29.03;96.60
34738;BME280;39910;47.154;27.614;2022-09-09T05:33:47;100715.00;;;29.17;89.77
34738;BME280;39910;47.154;27.614;2022-09-09T05:36:19;100705.03;;;29.64;91.35
34738;BME280;39910;47.154;27.614;2022-09-09T05:38:45;100705.09;;;28.54;93.30
34738;BME280;39910;47.154;27.614;2022-09-09T05:41:12;100701.72;;;29.29;90.55
34738;BME280;39910;47.154;27.614;2022-09-09T05:43:38;100703.03;;;30.35;82.83
34738;BME280;39910;47.154;27.614;2022-09-09T05:46:11;100713.81;;;27.69;91.27
34738;BME280;39910;47.154;27.614;2022-09-09T05:48:39;100709.09;;;28.62;92.56
34738;BME280;39910;47.154;27.614;2022-09-09T05:51:07;100703.19;;;29.40;88.77
34738;BME280;39910;47.154;27.614;2022-09-09T05:53:33;100706.59;;;29.51;87.13
34738;BME280;39910;47.154;27.614;2022-09-09T05:56:19;100705.63;;;28.32;93.86
34738;BME280;39910;47.154;27.614;2022-09-09T05:58:47;100714.06;;;28.36;92.21
34738;BME280;39910;47.154;27.614;2022-09-09T06:01:20;100709.84;;;30.05;90.51
34738;BME280;39910;47.154;27.614;2022-09-09T06:03:49;100706.81;;;28.50;94.46
34738;BME280;39910;47.154;27.614;2022-09-09T06:06:17;100697.03;;;28.15;96.88
34738;BME280;39910;47.154;27.614;2022-09-09T06:08:46;100710.28;;;27.19;96.74
34738;BME280;39910;47.154;27.614;2022-09-09T06:11:19;100694.53;;;25.80;100.00
34738;BME280;39910;47.154;27.614;2022-09-09T06:13:45;100699.31;;;26.65;100.00
34738;BME280;39910;47.154;27.614;2022-09-09T06:16:13;100702.69;;;25.96;100.00
34738;BME280;39910;47.154;27.614;2022-09-09T06:18:41;100684.44;;;22.85;100.00
34738;BME280;39910;47.154;27.614;2022-09-09T06:21:11;100690.50;;;23.68;100.00
34738;BME280;39910;47.154;27.614;2022-09-09T06:23:39;100708.03;;;26.62;100.00
34738;BME280;39910;47.154;27.614;2022-09-09T06:28:33;100707.44;;;28.13;100.00
34738;BME280;39910;47.154;27.614;2022-09-09T06:31:05;100702.94;;;25.84;100.00
34738;BME280;39910;47.154;27.614;2022-09-09T06:33:32;100706.47;;;24.02;100.00
34738;BME280;39910;47.154;27.614;2022-09-09T06:36:00;100692.78;;;25.23;100.00
34738;BME280;39910;47.154;27.614;2022-09-09T06:38:26;100710.59;;;23.23;100.00
34738;BME280;39910;47.154;27.614;2022-09-09T06:40:57;100705.88;;;23.62;100.00
34738;BME280;39910;47.154;27.614;2022-09-09T06:43:24;100696.75;;;22.76;100.00
34738;BME280;39910;47.154;27.614;2022-09-09T06:48:24;100694.34;;;25.04;100.00
34738;BME280;39910;47.154;27.614;2022-09-09T06:51:09;100710.78;;;25.50;100.00
34738;BME280;39910;47.154;27.614;2022-09-09T06:53:37;100704.91;;;25.00;100.00
34738;BME280;39910;47.154;27.614;2022-09-09T06:56:21;100697.47;;;25.69;100.00
34738;BME280;39910;47.154;27.614;2022-09-09T06:58:51;100678.16;;;27.90;100.00
34738;BME280;39910;47.154;27.614;2022-09-09T07:01:28;100689.38;;;27.05;100.00
34738;BME280;39910;47.154;27.614;2022-09-09T07:03:55;100687.94;;;26.32;100.00
34738;BME280;39910;47.154;27.614;2022-09-09T07:06:25;100685.53;;;25.49;100.00
34738;BME280;39910;47.154;27.614;2022-09-09T07:08:56;100690.66;;;26.53;100.00
34738;BME280;39910;47.154;27.614;2022-09-09T07:11:26;100684.56;;;27.36;100.00
34738;BME280;39910;47.154;27.614;2022-09-09T07:13:56;100702.28;;;29.07;98.46
34738;BME280;39910;47.154;27.614;2022-09-09T07:16:22;100692.06;;;27.54;100.00
34738;BME280;39910;47.154;27.614;2022-09-09T07:18:53;100692.00;;;26.35;100.00
34738;BME280;39910;47.154;27.614;2022-09-09T07:21:23;100707.56;;;27.14;100.00
34738;BME280;39910;47.154;27.614;2022-09-09T07:23:49;100702.91;;;27.59;100.00
34738;BME280;39910;47.154;27.614;2022-09-09T07:26:20;100702.16;;;26.99;100.00
34738;BME280;39910;47.154;27.614;2022-09-09T07:28:46;100712.09;;;26.69;100.00
34738;BME280;39910;47.154;27.614;2022-09-09T07:31:32;100695.34;;;27.12;100.00
34738;BME280;39910;47.154;27.614;2022-09-09T07:33:59;100708.88;;;27.22;100.00
34738;BME280;39910;47.154;27.614;2022-09-09T07:36:31;100702.66;;;27.16;100.00
34738;BME280;39910;47.154;27.614;2022-09-09T07:39:02;100701.56;;;26.07;100.00
34738;BME280;39910;47.154;27.614;2022-09-09T07:41:35;100687.38;;;27.60;100.00
34738;BME280;39910;47.154;27.614;2022-09-09T07:44:06;100678.78;;;25.87;100.00
34738;BME280;39910;47.154;27.614;2022-09-09T07:46:32;100689.94;;;26.96;100.00
34738;BME280;39910;47.154;27.614;2022-09-09T07:48:57;100679.00;;;25.60;100.00
34738;BME280;39910;47.154;27.614;2022-09-09T07:51:29;100687.41;;;25.44;100.00
34738;BME280;39910;47.154;27.614;2022-09-09T07:53:57;100668.94;;;25.51;100.00
34738;BME280;39910;47.154;27.614;2022-09-09T07:56:23;100678.31;;;25.02;100.00
34738;BME280;39910;47.154;27.614;2022-09-09T07:58:51;100701.88;;;24.87;100.00
34738;BME280;39910;47.154;27.614;2022-09-09T08:01:22;100686.28;;;25.19;100.00
34738;BME280;39910;47.154;27.614;2022-09-09T08:03:56;100694.75;;;25.69;100.00
34738;BME280;39910;47.154;27.614;2022-09-09T08:06:25;100671.38;;;25.42;100.00
34738;BME280;39910;47.154;27.614;2022-09-09T08:08:52;100664.88;;;25.58;100.00
34738;BME280;39910;47.154;27.614;2022-09-09T08:11:18;100670.31;;;25.43;100.00
34738;BME280;39910;47.154;27.614;2022-09-09T08:13:44;100667.72;;;27.29;100.00
34738;BME280;39910;47.154;27.614;2022-09-09T08:16:13;100683.25;;;29.02;100.00
34738;BME280;39910;47.154;27.614;2022-09-09T08:18:39;100683.53;;;28.29;100.00
34738;BME280;39910;47.154;27.614;2022-09-09T08:21:15;100685.31;;;28.15;100.00
34738;BME280;39910;47.154;27.614;2022-09-09T08:23:43;100682.88;;;28.66;100.00
34738;BME280;39910;47.154;27.614;2022-09-09T08:26:21;100684.38;;;28.24;100.00
34738;BME280;39910;47.154;27.614;2022-09-09T08:28:51;100683.91;;;26.99;100.00
34738;BME280;39910;47.154;27.614;2022-09-09T08:31:23;100680.03;;;28.23;100.00
34738;BME280;39910;47.154;27.614;2022-09-09T08:33:49;100673.63;;;28.09;100.00
34738;BME280;39910;47.154;27.614;2022-09-09T08:36:18;100673.84;;;28.42;100.00
34738;BME280;39910;47.154;27.614;2022-09-09T08:38:51;100675.72;;;28.46;100.00
34738;BME280;39910;47.154;27.614;2022-09-09T08:47:15;100663.63;;;28.76;98.25
34738;BME280;39910;47.154;27.614;2022-09-09T08:52:46;100658.88;;;28.39;93.96
34738;BME280;39910;47.154;27.614;2022-09-09T08:55:45;100662.56;;;28.24;91.83
34738;BME280;39910;47.154;27.614;2022-09-09T08:58:18;100659.34;;;28.94;90.17
34738;BME280;39910;47.154;27.614;2022-09-09T09:11:55;100657.88;;;29.02;88.04
34738;BME280;39910;47.154;27.614;2022-09-09T09:14:24;100663.09;;;29.17;90.41
34738;BME280;39910;47.154;27.614;2022-09-09T09:16:57;100660.81;;;28.81;94.19
34738;BME280;39910;47.154;27.614;2022-09-09T09:19:24;100663.38;;;29.15;92.68
34738;BME280;39910;47.154;27.614;2022-09-09T09:27:33;100664.59;;;28.85;88.61
34738;BME280;39910;47.154;27.614;2022-09-09T09:30:05;100656.63;;;28.17;93.04
34738;BME280;39910;47.154;27.614;2022-09-09T09:32:33;100643.69;;;27.36;95.49
34738;BME280;39910;47.154;27.614;2022-09-09T09:35:02;100643.09;;;26.99;97.93
34738;BME280;39910;47.154;27.614;2022-09-09T09:37:34;100633.97;;;27.59;97.70
34738;BME280;39910;47.154;27.614;2022-09-09T09:40:15;100635.84;;;27.63;97.63
34738;BME280;39910;47.154;27.614;2022-09-09T09:45:41;100634.69;;;26.91;98.97
34738;BME280;39910;47.154;27.614;2022-09-09T09:48:11;100638.63;;;26.64;99.03
34738;BME280;39910;47.154;27.614;2022-09-09T09:55:52;100641.44;;;26.34;100.00
34738;BME280;39910;47.154;27.614;2022-09-09T09:58:18;100637.66;;;26.20;100.00
34738;BME280;39910;47.154;27.614;2022-09-09T10:00:49;100640.94;;;26.16;100.00
34738;BME280;39910;47.154;27.614;2022-09-09T10:03:30;100651.84;;;25.96;100.00
34738;BME280;39910;47.154;27.614;2022-09-09T10:05:56;100649.41;;;25.95;100.00
34738;BME280;39910;47.154;27.614;2022-09-09T10:08:26;100658.31;;;26.26;100.00
34738;BME280;39910;47.154;27.614;2022-09-09T10:13:29;100659.72;;;25.77;100.00
34738;BME280;39910;47.154;27.614;2022-09-09T10:16:01;100659.47;;;25.84;100.00
34738;BME280;39910;47.154;27.614;2022-09-09T10:18:54;100664.56;;;26.26;100.00
34738;BME280;39910;47.154;27.614;2022-09-09T10:22:05;100663.53;;;26.02;100.00
34738;BME280;39910;47.154;27.614;2022-09-09T10:27:25;100655.94;;;25.88;100.00
34738;BME280;39910;47.154;27.614;2022-09-09T10:30:03;100667.34;;;26.01;100.00
34738;BME280;39910;47.154;27.614;2022-09-09T10:32:48;100671.13;;;25.44;100.00
34738;BME280;39910;47.154;27.614;2022-09-09T10:38:42;100681.19;;;26.09;100.00
34738;BME280;39910;47.154;27.614;2022-09-09T10:41:22;100677.94;;;25.82;100.00
34738;BME280;39910;47.154;27.614;2022-09-09T10:47:30;100680.34;;;25.53;100.00
34738;BME280;39910;47.154;27.614;2022-09-09T10:53:02;100671.13;;;25.69;100.00
34738;BME280;39910;47.154;27.614;2022-09-09T10:55:43;100677.09;;;25.61;100.00
34738;BME280;39910;47.154;27.614;2022-09-09T10:58:21;100673.84;;;25.49;100.00
34738;BME280;39910;47.154;27.614;2022-09-09T11:01:01;100677.09;;;25.56;100.00
34738;BME280;39910;47.154;27.614;2022-09-09T11:03:28;100682.25;;;25.52;100.00
34738;BME280;39910;47.154;27.614;2022-09-09T11:06:04;100677.13;;;25.71;100.00
34738;BME280;39910;47.154;27.614;2022-09-09T11:08:34;100682.28;;;25.57;100.00
34738;BME280;39910;47.154;27.614;2022-09-09T11:11:09;100668.91;;;25.41;100.00
34738;BME280;39910;47.154;27.614;2022-09-09T11:16:50;100664.31;;;25.36;100.00
34738;BME280;39910;47.154;27.614;2022-09-09T11:19:36;100675.19;;;25.51;100.00
34738;BME280;39910;47.154;27.614;2022-09-09T11:24:48;100661.91;;;25.96;100.00
34738;BME280;39910;47.154;27.614;2022-09-09T11:38:04;100666.25;;;26.02;100.00
34738;BME280;39910;47.154;27.614;2022-09-09T11:40:32;100654.25;;;26.18;100.00
34738;BME280;39910;47.154;27.614;2022-09-09T11:45:41;100646.06;;;26.38;100.00
34738;BME280;39910;47.154;27.614;2022-09-09T11:48:28;100641.19;;;26.20;100.00
34738;BME280;39910;47.154;27.614;2022-09-09T11:53:53;100630.56;;;26.29;100.00
34738;BME280;39910;47.154;27.614;2022-09-09T11:59:00;100633.38;;;25.93;100.00
34738;BME280;39910;47.154;27.614;2022-09-09T12:04:10;100623.53;;;26.23;100.00
34738;BME280;39910;47.154;27.614;2022-09-09T12:09:33;100623.91;;;26.65;100.00
34738;BME280;39910;47.154;27.614;2022-09-09T12:12:22;100612.66;;;26.87;100.00
34738;BME280;39910;47.154;27.614;2022-09-09T12:15:02;100613.94;;;26.35;100.00
34738;BME280;39910;47.154;27.614;2022-09-09T12:17:30;100613.03;;;26.65;100.00
34738;BME280;39910;47.154;27.614;2022-09-09T12:23:15;100604.75;;;26.91;100.00
34738;BME280;39910;47.154;27.614;2022-09-09T12:25:58;100610.69;;;26.98;100.00
34738;BME280;39910;47.154;27.614;2022-09-09T12:36:39;100614.63;;;27.26;100.00
34738;BME280;39910;47.154;27.614;2022-09-09T12:39:18;100613.13;;;27.05;100.00
34738;BME280;39910;47.154;27.614;2022-09-09T12:41:52;100606.97;;;26.84;100.00
34738;BME280;39910;47.154;27.614;2022-09-09T12:44:26;100609.41;;;26.85;100.00
34738;BME280;39910;47.154;27.614;2022-09-09T12:46:54;100612.56;;;27.03;100.00
34738;BME280;39910;47.154;27.614;2022-09-09T12:51:52;100607.41;;;26.47;100.00
34738;BME280;39910;47.154;27.614;2022-09-09T12:54:19;100611.38;;;26.75;100.00
34738;BME280;39910;47.154;27.614;2022-09-09T12:56:48;100607.97;;;26.98;100.00
34738;BME280;39910;47.154;27.614;2022-09-09T12:59:24;100610.44;;;26.94;100.00
34738;BME280;39910;47.154;27.614;2022-09-09T13:01:59;100610.16;;;26.96;100.00
34738;BME280;39910;47.154;27.614;2022-09-09T13:04:24;100609.19;;;26.71;100.00
34738;BME280;39910;47.154;27.614;2022-09-09T13:06:50;100615.13;;;26.84;100.00
34738;BME280;39910;47.154;27.614;2022-09-09T13:09:17;100621.38;;;26.89;100.00
34738;BME280;39910;47.154;27.614;2022-09-09T13:11:48;100616.75;;;26.90;100.00
34738;BME280;39910;47.154;27.614;2022-09-09T13:14:36;100616.19;;;26.88;100.00
34738;BME280;39910;47.154;27.614;2022-09-09T13:17:05;100620.47;;;26.99;100.00
34738;BME280;39910;47.154;27.614;2022-09-09T13:19:36;100629.78;;;26.88;100.00
34738;BME280;39910;47.154;27.614;2022-09-09T13:22:35;100625.81;;;26.75;100.00
34738;BME280;39910;47.154;27.614;2022-09-09T13:25:06;100637.19;;;26.82;100.00
34738;BME280;39910;47.154;27.614;2022-09-09T13:27:52;100633.00;;;27.00;100.00
34738;BME280;39910;47.154;27.614;2022-09-09T13:30:37;100636.97;;;26.74;100.00
34738;BME280;39910;47.154;27.614;2022-09-09T13:35:31;100644.47;;;26.97;100.00
34738;BME280;39910;47.154;27.614;2022-09-09T13:37:58;100646.06;;;27.03;100.00
34738;BME280;39910;47.154;27.614;2022-09-09T13:40:25;100645.50;;;27.01;100.00
34738;BME280;39910;47.154;27.614;2022-09-09T13:42:55;100640.34;;;26.45;100.00
34738;BME280;39910;47.154;27.614;2022-09-09T13:45:23;100649.41;;;26.85;100.00
34738;BME280;39910;47.154;27.614;2022-09-09T13:47:53;100654.28;;;26.88;100.00
34738;BME280;39910;47.154;27.614;2022-09-09T13:50:30;100648.94;;;26.72;100.00
34738;BME280;39910;47.154;27.614;2022-09-09T13:52:57;100654.88;;;26.85;100.00
34738;BME280;39910;47.154;27.614;2022-09-09T13:55:26;100655.69;;;26.85;100.00
34738;BME280;39910;47.154;27.614;2022-09-09T13:58:00;100643.00;;;26.60;100.00
34738;BME280;39910;47.154;27.614;2022-09-09T14:00:26;100641.72;;;26.37;100.00
34738;BME280;39910;47.154;27.614;2022-09-09T14:02:53;100639.78;;;26.43;100.00
34738;BME280;39910;47.154;27.614;2022-09-09T14:05:21;100639.81;;;26.28;100.00
34738;BME280;39910;47.154;27.614;2022-09-09T14:07:47;100639.84;;;26.12;100.00
34738;BME280;39910;47.154;27.614;2022-09-09T14:10:13;100633.31;;;26.13;100.00
34738;BME280;39910;47.154;27.614;2022-09-09T14:12:39;100639.31;;;26.05;100.00
34738;BME280;39910;47.154;27.614;2022-09-09T14:15:06;100632.84;;;25.81;100.00
34738;BME280;39910;47.154;27.614;2022-09-09T14:17:31;100627.63;;;25.69;100.00
34738;BME280;39910;47.154;27.614;2022-09-09T14:19:57;100636.34;;;25.61;100.00
34738;BME280;39910;47.154;27.614;2022-09-09T14:22:24;100629.00;;;25.61;100.00
34738;BME280;39910;47.154;27.614;2022-09-09T14:24:50;100623.28;;;25.48;100.00
34738;BME280;39910;47.154;27.614;2022-09-09T14:27:16;100627.91;;;25.68;100.00
34738;BME280;39910;47.154;27.614;2022-09-09T14:29:42;100627.66;;;25.49;100.00
34738;BME280;39910;47.154;27.614;2022-09-09T14:32:10;100635.25;;;25.31;100.00
34738;BME280;39910;47.154;27.614;2022-09-09T14:34:35;100629.28;;;25.45;100.00
34738;BME280;39910;47.154;27.614;2022-09-09T14:37:01;100630.34;;;25.39;100.00
34738;BME280;39910;47.154;27.614;2022-09-09T14:39:26;100630.09;;;25.30;100.00
34738;BME280;39910;47.154;27.614;2022-09-09T14:41:52;100622.75;;;25.20;100.00
34738;BME280;39910;47.154;27.614;2022-09-09T14:44:17;100633.88;;;25.14;100.00
34738;BME280;39910;47.154;27.614;2022-09-09T14:46:44;100633.06;;;25.13;100.00
34738;BME280;39910;47.154;27.614;2022-09-09T14:49:09;100630.03;;;25.04;100.00
34738;BME280;39910;47.154;27.614;2022-09-09T14:51:38;100635.19;;;25.11;100.00
34738;BME280;39910;47.154;27.614;2022-09-09T14:54:04;100638.72;;;25.12;100.00
34738;BME280;39910;47.154;27.614;2022-09-09T14:56:32;100626.78;;;25.07;100.00
34738;BME280;39910;47.154;27.614;2022-09-09T14:58:59;100632.25;;;25.13;100.00
34738;BME280;39910;47.154;27.614;2022-09-09T15:01:30;100621.09;;;25.14;100.00
34738;BME280;39910;47.154;27.614;2022-09-09T15:03:58;100621.00;;;24.89;100.00
34738;BME280;39910;47.154;27.614;2022-09-09T15:06:25;100624.84;;;24.98;100.00
34738;BME280;39910;47.154;27.614;2022-09-09T15:08:52;100631.28;;;24.81;100.00
34738;BME280;39910;47.154;27.614;2022-09-09T15:11:20;100631.28;;;24.81;100.00
34738;BME280;39910;47.154;27.614;2022-09-09T15:13:46;100632.91;;;24.72;100.00
34738;BME280;39910;47.154;27.614;2022-09-09T15:16:20;100627.47;;;24.72;100.00